createdAt,value
2024-03-09T00:00:12.038Z,740.00
2024-03-09T00:01:12.040Z,747.00
2024-03-09T00:02:12.123Z,745.00
2024-03-09T00:03:12.157Z,747.00
2024-03-09T00:04:12.180Z,752.00
2024-03-09T00:05:12.311Z,747.00
2024-03-09T00:06:12.417Z,760.00
2024-03-09T00:07:12.310Z,762.00
2024-03-09T00:08:12.348Z,765.00
2024-03-09T00:09:12.401Z,760.00
2024-03-09T00:10:12.482Z,768.00
2024-03-09T00:11:12.566Z,757.00
2024-03-09T00:12:12.529Z,764.00
2024-03-09T00:13:12.660Z,758.00
2024-03-09T00:14:12.703Z,767.00
2024-03-09T00:15:13.031Z,769.00
2024-03-09T00:16:12.728Z,768.00
2024-03-09T00:17:12.827Z,786.00
2024-03-09T00:18:12.866Z,782.00
2024-03-09T00:19:12.887Z,778.00
2024-03-09T00:20:13.001Z,781.00
2024-03-09T00:21:12.978Z,775.00
2024-03-09T00:22:13.371Z,778.00
2024-03-09T00:23:13.094Z,788.00
2024-03-09T00:24:13.087Z,779.00
2024-03-09T00:25:13.152Z,773.00
2024-03-09T00:26:13.294Z,767.00
2024-03-09T00:27:13.204Z,767.00
2024-03-09T00:28:13.252Z,762.00
2024-03-09T00:29:13.370Z,750.00
2024-03-09T00:30:13.427Z,749.00
2024-03-09T00:31:13.717Z,745.00
2024-03-09T00:32:13.501Z,740.00
2024-03-09T00:33:13.531Z,733.00
2024-03-09T00:34:13.506Z,739.00
2024-03-09T00:35:13.540Z,730.00
2024-03-09T00:36:13.646Z,730.00
2024-03-09T00:37:13.678Z,730.00
2024-03-09T00:38:13.780Z,722.00
2024-03-09T00:39:13.738Z,722.00
2024-03-09T00:40:14.059Z,716.00
2024-03-09T00:41:15.621Z,707.00
2024-03-09T00:42:13.888Z,703.00
2024-03-09T00:43:13.932Z,710.00
2024-03-09T00:44:14.020Z,696.00
2024-03-09T00:45:14.021Z,691.00
2024-03-09T00:46:14.065Z,698.00
2024-03-09T00:47:14.109Z,691.00
2024-03-09T00:48:14.187Z,691.00
2024-03-09T00:49:14.166Z,688.00
2024-03-09T00:50:14.276Z,690.00
2024-03-09T00:51:14.264Z,689.00
2024-03-09T00:52:14.346Z,691.00
2024-03-09T00:53:14.403Z,698.00
2024-03-09T00:54:14.421Z,695.00
2024-03-09T00:55:14.471Z,699.00
2024-03-09T00:56:14.534Z,697.00
2024-03-09T00:57:14.508Z,700.00
2024-03-09T00:58:14.602Z,698.00
2024-03-09T00:59:14.782Z,704.00
2024-03-09T01:00:14.676Z,713.00
2024-03-09T01:01:14.782Z,710.00
2024-03-09T01:02:14.809Z,720.00
2024-03-09T01:03:14.833Z,720.00
2024-03-09T01:04:14.877Z,712.00
2024-03-09T01:05:14.925Z,729.00
2024-03-09T01:06:14.950Z,730.00
2024-03-09T01:07:15.016Z,729.00
2024-03-09T01:08:16.830Z,725.00
2024-03-09T01:09:15.060Z,736.00
2024-03-09T01:10:15.026Z,732.00
2024-03-09T01:11:15.109Z,738.00
2024-03-09T01:12:15.018Z,733.00
2024-03-09T01:13:15.056Z,740.00
2024-03-09T01:14:15.075Z,738.00
2024-03-09T01:15:15.461Z,748.00
2024-03-09T01:16:15.018Z,743.00
2024-03-09T01:17:15.091Z,743.00
2024-03-09T01:18:15.100Z,743.00
2024-03-09T01:19:15.055Z,746.00
2024-03-09T01:20:15.279Z,748.00
2024-03-09T01:21:15.060Z,737.00
2024-03-09T01:22:15.060Z,732.00
2024-03-09T01:23:15.100Z,729.00
2024-03-09T01:24:15.112Z,717.00
2024-03-09T01:25:15.096Z,731.00
2024-03-09T01:26:15.136Z,728.00
2024-03-09T01:27:15.039Z,724.00
2024-03-09T01:28:15.049Z,726.00
2024-03-09T01:29:15.077Z,718.00
2024-03-09T01:30:15.088Z,712.00
2024-03-09T01:31:15.090Z,703.00
2024-03-09T01:32:15.118Z,707.00
2024-03-09T01:33:15.142Z,697.00
2024-03-09T01:34:15.087Z,708.00
2024-03-09T01:35:15.668Z,698.00
2024-03-09T01:36:15.080Z,694.00
2024-03-09T01:37:15.090Z,689.00
2024-03-09T01:38:15.149Z,685.00
2024-03-09T01:39:15.151Z,683.00
2024-03-09T01:40:15.108Z,683.00
2024-03-09T01:41:15.140Z,673.00
2024-03-09T01:42:15.101Z,666.00
2024-03-09T01:43:15.105Z,660.00
2024-03-09T01:44:15.171Z,659.00
2024-03-09T01:45:15.147Z,655.00
2024-03-09T01:46:15.090Z,651.00
2024-03-09T01:47:15.099Z,650.00
2024-03-09T01:48:15.130Z,647.00
2024-03-09T01:49:15.095Z,644.00
2024-03-09T01:50:15.186Z,642.00
2024-03-09T01:51:15.111Z,640.00
2024-03-09T01:52:15.115Z,636.00
2024-03-09T01:53:15.143Z,638.00
2024-03-09T01:54:15.111Z,634.00
2024-03-09T01:55:15.113Z,632.00
2024-03-09T01:56:15.145Z,633.00
2024-03-09T01:57:15.162Z,631.00
2024-03-09T01:58:15.176Z,632.00
2024-03-09T01:59:15.215Z,628.00
2024-03-09T02:00:15.294Z,625.00
2024-03-09T02:01:15.374Z,618.00
2024-03-09T02:02:15.412Z,618.00
2024-03-09T02:03:15.414Z,614.00
2024-03-09T02:04:15.429Z,608.00
2024-03-09T02:05:15.520Z,604.00
2024-03-09T02:06:15.538Z,596.00
2024-03-09T02:07:15.568Z,596.00
2024-03-09T02:08:15.587Z,602.00
2024-03-09T02:09:15.608Z,604.00
2024-03-09T02:10:15.676Z,597.00
2024-03-09T02:11:15.788Z,600.00
2024-03-09T02:12:16.062Z,602.00
2024-03-09T02:13:15.745Z,600.00
2024-03-09T02:14:15.785Z,604.00
2024-03-09T02:15:15.810Z,599.00
2024-03-09T02:16:15.827Z,601.00
2024-03-09T02:17:15.911Z,600.00
2024-03-09T02:18:15.889Z,600.00
2024-03-09T02:19:15.927Z,599.00
2024-03-09T02:20:15.998Z,602.00
2024-03-09T02:21:16.044Z,599.00
2024-03-09T02:22:16.057Z,599.00
2024-03-09T02:23:16.087Z,599.00
2024-03-09T02:24:16.153Z,601.00
2024-03-09T02:25:16.192Z,601.00
2024-03-09T02:26:16.200Z,601.00
2024-03-09T02:27:16.306Z,602.00
2024-03-09T02:28:16.278Z,601.00
2024-03-09T02:29:16.330Z,600.00
2024-03-09T02:31:30.776Z,601.00
2024-03-09T02:32:16.405Z,602.00
2024-03-09T02:33:16.410Z,604.00
2024-03-09T02:34:16.468Z,608.00
2024-03-09T02:35:16.563Z,611.00
2024-03-09T02:36:16.548Z,622.00
2024-03-09T02:37:19.516Z,620.00
2024-03-09T02:38:16.584Z,620.00
2024-03-09T02:39:16.764Z,620.00
2024-03-09T02:40:16.613Z,621.00
2024-03-09T02:41:16.634Z,623.00
2024-03-09T02:42:16.630Z,625.00
2024-03-09T02:43:16.647Z,624.00
2024-03-09T02:44:16.825Z,632.00
2024-03-09T02:45:16.598Z,636.00
2024-03-09T02:46:16.608Z,641.00
2024-03-09T02:47:16.752Z,641.00
2024-03-09T02:48:16.647Z,644.00
2024-03-09T02:49:16.679Z,644.00
2024-03-09T02:50:16.642Z,647.00
2024-03-09T02:51:16.642Z,645.00
2024-03-09T02:52:16.648Z,648.00
2024-03-09T02:53:16.658Z,647.00
2024-03-09T02:54:16.750Z,645.00
2024-03-09T02:55:16.640Z,642.00
2024-03-09T02:56:16.653Z,641.00
2024-03-09T02:57:16.657Z,639.00
2024-03-09T02:58:16.611Z,635.00
2024-03-09T02:59:16.674Z,638.00
2024-03-09T03:00:16.648Z,636.00
2024-03-09T03:01:16.682Z,639.00
2024-03-09T03:02:16.701Z,636.00
2024-03-09T03:03:16.673Z,641.00
2024-03-09T03:04:17.016Z,641.00
2024-03-09T03:05:16.758Z,642.00
2024-03-09T03:06:16.673Z,648.00
2024-03-09T03:07:16.678Z,651.00
2024-03-09T03:08:16.675Z,657.00
2024-03-09T03:09:16.694Z,657.00
2024-03-09T03:10:16.725Z,658.00
2024-03-09T03:11:16.701Z,666.00
2024-03-09T03:12:16.703Z,673.00
2024-03-09T03:13:16.695Z,681.00
2024-03-09T03:14:16.792Z,686.00
2024-03-09T03:15:16.806Z,708.00
2024-03-09T03:16:16.826Z,716.00
2024-03-09T03:17:16.881Z,727.00
2024-03-09T03:18:16.960Z,734.00
2024-03-09T03:19:16.960Z,743.00
2024-03-09T03:20:16.994Z,758.00
2024-03-09T03:21:17.014Z,781.00
2024-03-09T03:22:17.111Z,782.00
2024-03-09T03:23:17.220Z,793.00
2024-03-09T03:24:17.171Z,798.00
2024-03-09T03:25:17.199Z,823.00
2024-03-09T03:26:17.392Z,824.00
2024-03-09T03:27:17.329Z,833.00
2024-03-09T03:28:17.369Z,845.00
2024-03-09T03:29:17.456Z,845.00
2024-03-09T03:30:17.510Z,854.00
2024-03-09T03:31:17.551Z,858.00
2024-03-09T03:32:17.682Z,870.00
2024-03-09T03:33:17.682Z,870.00
2024-03-09T03:34:17.663Z,868.00
2024-03-09T03:35:17.748Z,871.00
2024-03-09T03:36:17.830Z,874.00
2024-03-09T03:37:17.861Z,874.00
2024-03-09T03:38:17.907Z,877.00
2024-03-09T03:39:18.015Z,881.00
2024-03-09T03:40:18.037Z,886.00
2024-03-09T03:41:18.180Z,890.00
2024-03-09T03:42:18.176Z,897.00
2024-03-09T03:43:40.827Z,897.00
2024-03-09T03:44:18.183Z,898.00
2024-03-09T03:45:18.169Z,900.00
2024-03-09T03:46:18.262Z,903.00
2024-03-09T03:47:18.307Z,904.00
2024-03-09T03:48:18.427Z,908.00
2024-03-09T03:49:18.435Z,900.00
2024-03-09T03:50:18.499Z,896.00
2024-03-09T03:51:18.558Z,885.00
2024-03-09T03:52:18.614Z,884.00
2024-03-09T03:53:18.661Z,879.00
2024-03-09T03:54:18.709Z,873.00
2024-03-09T03:55:18.719Z,865.00
2024-03-09T03:56:18.870Z,858.00
2024-03-09T03:57:18.861Z,856.00
2024-03-09T03:58:19.045Z,853.00
2024-03-09T03:59:18.965Z,848.00
2024-03-09T04:00:18.991Z,845.00
2024-03-09T04:01:19.115Z,837.00
2024-03-09T04:02:19.186Z,842.00
2024-03-09T04:03:19.126Z,830.00
2024-03-09T04:04:19.183Z,831.00
2024-03-09T04:05:19.260Z,837.00
2024-03-09T04:06:19.296Z,831.00
2024-03-09T04:07:19.347Z,824.00
2024-03-09T04:08:19.378Z,827.00
2024-03-09T04:09:20.205Z,826.00
2024-03-09T04:10:19.457Z,822.00
2024-03-09T04:11:19.594Z,822.00
2024-03-09T04:12:19.584Z,819.00
2024-03-09T04:13:19.632Z,809.00
2024-03-09T04:14:19.663Z,816.00
2024-03-09T04:15:19.825Z,821.00
2024-03-09T04:16:19.751Z,809.00
2024-03-09T04:17:19.826Z,827.00
2024-03-09T04:18:19.887Z,809.00
2024-03-09T04:19:20.268Z,809.00
2024-03-09T04:20:19.992Z,811.00
2024-03-09T04:21:19.974Z,814.00
2024-03-09T04:22:20.098Z,815.00
2024-03-09T04:23:20.204Z,807.00
2024-03-09T04:24:20.143Z,812.00
2024-03-09T04:25:20.216Z,809.00
2024-03-09T04:26:20.316Z,821.00
2024-03-09T04:27:20.325Z,819.00
2024-03-09T04:28:27.632Z,600.00
2024-03-09T04:29:27.556Z,600.00
2024-03-09T04:30:27.550Z,600.00
2024-03-09T04:31:34.855Z,600.00
2024-03-09T04:32:58.085Z,600.00
2024-03-09T04:33:34.798Z,600.00
2024-03-09T04:34:34.817Z,600.00
2024-03-09T04:35:35.147Z,600.00
2024-03-09T04:36:34.894Z,600.00
2024-03-09T04:37:34.990Z,600.00
2024-03-09T04:38:34.986Z,607.00
2024-03-09T04:39:35.039Z,601.00
2024-03-09T04:40:35.188Z,603.00
2024-03-09T04:41:35.167Z,603.00
2024-03-09T04:42:35.276Z,600.00
2024-03-09T04:43:35.311Z,605.00
2024-03-09T04:44:35.376Z,602.00
2024-03-09T04:45:35.391Z,600.00
2024-03-09T04:46:35.450Z,602.00
2024-03-09T04:47:35.457Z,603.00
2024-03-09T04:48:35.492Z,602.00
2024-03-09T04:49:35.594Z,601.00
2024-03-09T04:50:35.637Z,603.00
2024-03-09T04:51:35.697Z,602.00
2024-03-09T04:52:35.758Z,601.00
2024-03-09T04:53:35.813Z,604.00
2024-03-09T04:54:35.847Z,603.00
2024-03-09T04:55:35.938Z,601.00
2024-03-09T04:56:35.945Z,605.00
2024-03-09T04:57:36.056Z,600.00
2024-03-09T04:58:36.089Z,600.00
2024-03-09T04:59:36.117Z,601.00
2024-03-09T05:00:36.204Z,605.00
2024-03-09T05:01:36.229Z,601.00
2024-03-09T05:02:36.257Z,603.00
2024-03-09T05:03:36.293Z,602.00
2024-03-09T05:04:36.348Z,604.00
2024-03-09T05:05:36.397Z,600.00
2024-03-09T05:06:36.462Z,601.00
2024-03-09T05:07:36.483Z,601.00
2024-03-09T05:08:36.549Z,602.00
2024-03-09T05:09:36.550Z,600.00
2024-03-09T05:10:36.666Z,600.00
2024-03-09T05:11:36.696Z,600.00
2024-03-09T05:12:36.743Z,600.00
2024-03-09T05:13:36.828Z,600.00
2024-03-09T05:14:36.828Z,600.00
2024-03-09T05:15:37.482Z,600.00
2024-03-09T05:16:36.892Z,608.00
2024-03-09T05:17:37.049Z,608.00
2024-03-09T05:18:37.032Z,607.00
2024-03-09T05:19:37.393Z,611.00
2024-03-09T05:20:37.261Z,612.00
2024-03-09T05:21:37.119Z,616.00
2024-03-09T05:22:37.189Z,616.00
2024-03-09T05:23:37.219Z,619.00
2024-03-09T05:24:37.259Z,620.00
2024-03-09T05:25:37.343Z,624.00
2024-03-09T05:26:37.348Z,629.00
2024-03-09T05:27:37.418Z,631.00
2024-03-09T05:28:37.454Z,635.00
2024-03-09T05:29:37.501Z,636.00
2024-03-09T05:30:37.558Z,634.00
2024-03-09T05:31:37.665Z,642.00
2024-03-09T05:32:37.706Z,645.00
2024-03-09T05:33:37.712Z,645.00
2024-03-09T05:34:37.766Z,644.00
2024-03-09T05:35:37.808Z,647.00
2024-03-09T05:36:37.823Z,651.00
2024-03-09T05:37:37.959Z,655.00
2024-03-09T05:38:37.957Z,652.00
2024-03-09T05:39:38.040Z,652.00
2024-03-09T05:40:38.086Z,649.00
2024-03-09T05:41:38.155Z,647.00
2024-03-09T05:42:38.235Z,650.00
2024-03-09T05:43:38.305Z,644.00
2024-03-09T05:44:38.300Z,642.00
2024-03-09T05:45:38.661Z,644.00
2024-03-09T05:46:38.426Z,639.00
2024-03-09T05:47:38.513Z,637.00
2024-03-09T05:48:38.518Z,636.00
2024-03-09T05:49:38.594Z,633.00
2024-03-09T05:50:38.592Z,633.00
2024-03-09T05:51:38.609Z,627.00
2024-03-09T05:52:38.741Z,629.00
2024-03-09T05:53:38.690Z,630.00
2024-03-09T05:55:01.404Z,628.00
2024-03-09T05:55:38.785Z,629.00
2024-03-09T05:56:38.751Z,630.00
2024-03-09T05:57:38.790Z,631.00
2024-03-09T05:58:38.794Z,631.00
2024-03-09T05:59:38.729Z,634.00
2024-03-09T06:00:38.744Z,630.00
2024-03-09T06:01:38.781Z,626.00
2024-03-09T06:02:38.769Z,630.00
2024-03-09T06:03:38.772Z,627.00
2024-03-09T06:04:38.802Z,629.00
2024-03-09T06:05:38.797Z,625.00
2024-03-09T06:06:38.823Z,625.00
2024-03-09T06:07:38.832Z,627.00
2024-03-09T06:08:38.836Z,627.00
2024-03-09T06:09:38.804Z,628.00
2024-03-09T06:10:43.957Z,630.00
2024-03-09T06:11:39.906Z,630.00
2024-03-09T06:12:38.875Z,631.00
2024-03-09T06:13:38.860Z,632.00
2024-03-09T06:14:38.818Z,636.00
2024-03-09T06:15:38.884Z,643.00
2024-03-09T06:16:38.930Z,640.00
2024-03-09T06:17:38.906Z,646.00
2024-03-09T06:18:38.828Z,646.00
2024-03-09T06:19:38.898Z,649.00
2024-03-09T06:20:38.833Z,653.00
2024-03-09T06:21:38.847Z,651.00
2024-03-09T06:22:38.911Z,656.00
2024-03-09T06:23:39.012Z,656.00
2024-03-09T06:24:39.864Z,659.00
2024-03-09T06:25:39.034Z,661.00
2024-03-09T06:26:39.090Z,662.00
2024-03-09T06:27:39.142Z,662.00
2024-03-09T06:28:39.206Z,661.00
2024-03-09T06:29:39.205Z,665.00
2024-03-09T06:30:39.289Z,668.00
2024-03-09T06:31:39.314Z,666.00
2024-03-09T06:32:39.363Z,666.00
2024-03-09T06:33:39.360Z,665.00
2024-03-09T06:34:39.408Z,675.00
2024-03-09T06:35:40.809Z,671.00
2024-03-09T06:36:39.535Z,674.00
2024-03-09T06:37:39.695Z,674.00
2024-03-09T06:38:39.640Z,680.00
2024-03-09T06:39:39.701Z,684.00
2024-03-09T06:40:39.765Z,687.00
2024-03-09T06:41:39.746Z,689.00
2024-03-09T06:42:39.821Z,690.00
2024-03-09T06:44:02.504Z,689.00
2024-03-09T06:44:39.835Z,690.00
2024-03-09T06:45:39.829Z,693.00
2024-03-09T06:46:39.895Z,698.00
2024-03-09T06:47:39.882Z,704.00
2024-03-09T06:48:39.846Z,715.00
2024-03-09T06:49:39.881Z,727.00
2024-03-09T06:50:39.818Z,720.00
2024-03-09T06:51:39.875Z,724.00
2024-03-09T06:52:39.886Z,719.00
2024-03-09T06:53:39.851Z,707.00
2024-03-09T06:54:39.856Z,717.00
2024-03-09T06:55:39.883Z,705.00
2024-03-09T06:56:39.843Z,702.00
2024-03-09T06:57:39.867Z,687.00
2024-03-09T06:58:39.924Z,686.00
2024-03-09T06:59:39.836Z,690.00
2024-03-09T07:00:39.908Z,680.00
2024-03-09T07:01:39.976Z,682.00
2024-03-09T07:02:39.997Z,671.00
2024-03-09T07:03:40.054Z,682.00
2024-03-09T07:04:40.105Z,668.00
2024-03-09T07:05:41.770Z,666.00
2024-03-09T07:06:40.123Z,667.00
2024-03-09T07:07:40.169Z,664.00
2024-03-09T07:08:40.139Z,663.00
2024-03-09T07:09:40.139Z,664.00
2024-03-09T07:10:40.233Z,668.00
2024-03-09T07:11:40.128Z,667.00
2024-03-09T07:12:40.190Z,665.00
2024-03-09T07:13:40.153Z,664.00
2024-03-09T07:14:40.136Z,668.00
2024-03-09T07:15:40.125Z,666.00
2024-03-09T07:16:40.200Z,672.00
2024-03-09T07:17:40.206Z,665.00
2024-03-09T07:18:40.145Z,678.00
2024-03-09T07:19:40.201Z,673.00
2024-03-09T07:20:40.115Z,676.00
2024-03-09T07:21:40.141Z,675.00
2024-03-09T07:22:40.223Z,677.00
2024-03-09T07:23:40.146Z,677.00
2024-03-09T07:24:40.145Z,684.00
2024-03-09T07:25:40.213Z,679.00
2024-03-09T07:26:40.168Z,684.00
2024-03-09T07:27:41.034Z,683.00
2024-03-09T07:28:40.176Z,680.00
2024-03-09T07:29:40.203Z,688.00
2024-03-09T07:30:40.148Z,682.00
2024-03-09T07:31:40.208Z,682.00
2024-03-09T07:32:40.260Z,688.00
2024-03-09T07:33:40.148Z,684.00
2024-03-09T07:34:40.162Z,694.00
2024-03-09T07:35:40.198Z,696.00
2024-03-09T07:36:40.537Z,711.00
2024-03-09T07:37:40.185Z,708.00
2024-03-09T07:38:40.186Z,712.00
2024-03-09T07:39:40.169Z,715.00
2024-03-09T07:40:40.206Z,711.00
2024-03-09T07:41:40.279Z,726.00
2024-03-09T07:42:40.209Z,716.00
2024-03-09T07:43:40.208Z,721.00
2024-03-09T07:44:40.183Z,723.00
2024-03-09T07:45:40.187Z,720.00
2024-03-09T07:46:40.205Z,720.00
2024-03-09T07:47:40.225Z,723.00
2024-03-09T07:48:40.198Z,723.00
2024-03-09T07:49:40.275Z,728.00
2024-03-09T07:50:40.193Z,732.00
2024-03-09T07:51:40.218Z,727.00
2024-03-09T07:52:40.264Z,726.00
2024-03-09T07:53:40.186Z,726.00
2024-03-09T07:54:40.211Z,717.00
2024-03-09T07:55:40.213Z,718.00
2024-03-09T07:56:40.199Z,715.00
2024-03-09T07:57:40.199Z,721.00
2024-03-09T07:58:40.206Z,716.00
2024-03-09T07:59:40.211Z,704.00
2024-03-09T08:00:40.224Z,707.00
2024-03-09T08:01:40.469Z,703.00
2024-03-09T08:02:40.237Z,717.00
2024-03-09T08:03:40.205Z,698.00
2024-03-09T08:04:40.222Z,710.00
2024-03-09T08:05:40.199Z,716.00
2024-03-09T08:06:40.232Z,704.00
2024-03-09T08:07:40.262Z,713.00
2024-03-09T08:08:40.285Z,711.00
2024-03-09T08:09:40.232Z,707.00
2024-03-09T08:10:40.299Z,697.00
2024-03-09T08:11:40.278Z,703.00
2024-03-09T08:12:40.228Z,708.00
2024-03-09T08:13:40.221Z,708.00
2024-03-09T08:14:40.200Z,706.00
2024-03-09T08:15:40.205Z,696.00
2024-03-09T08:16:40.587Z,696.00
2024-03-09T08:17:40.276Z,694.00
2024-03-09T08:18:40.248Z,691.00
2024-03-09T08:19:40.255Z,696.00
2024-03-09T08:20:40.314Z,681.00
2024-03-09T08:21:40.334Z,696.00
2024-03-09T08:22:40.368Z,694.00
2024-03-09T08:23:40.351Z,700.00
2024-03-09T08:24:40.387Z,693.00
2024-03-09T08:25:40.417Z,709.00
2024-03-09T08:26:40.398Z,702.00
2024-03-09T08:27:40.422Z,695.00
2024-03-09T08:28:40.465Z,699.00
2024-03-09T08:29:40.429Z,697.00
2024-03-09T08:30:40.446Z,700.00
2024-03-09T08:31:40.543Z,700.00
2024-03-09T08:32:40.813Z,695.00
2024-03-09T08:33:40.525Z,694.00
2024-03-09T08:34:40.505Z,691.00
2024-03-09T08:35:40.465Z,684.00
2024-03-09T08:36:40.475Z,681.00
2024-03-09T08:37:40.529Z,692.00
2024-03-09T08:38:40.477Z,670.00
2024-03-09T08:39:43.393Z,676.00
2024-03-09T08:40:40.561Z,665.00
2024-03-09T08:41:40.523Z,662.00
2024-03-09T08:42:40.500Z,658.00
2024-03-09T08:43:40.536Z,657.00
2024-03-09T08:44:40.526Z,654.00
2024-03-09T08:45:40.494Z,654.00
2024-03-09T08:46:40.505Z,651.00
2024-03-09T08:47:40.520Z,664.00
2024-03-09T08:48:40.498Z,669.00
2024-03-09T08:49:40.601Z,660.00
2024-03-09T08:50:40.571Z,673.00
2024-03-09T08:51:40.528Z,666.00
2024-03-09T08:52:40.673Z,668.00
2024-03-09T08:53:40.498Z,680.00
2024-03-09T08:54:40.522Z,678.00
2024-03-09T08:55:40.580Z,664.00
2024-03-09T08:56:40.532Z,651.00
2024-03-09T08:57:40.547Z,660.00
2024-03-09T08:58:40.516Z,666.00
2024-03-09T08:59:40.501Z,659.00
2024-03-09T09:00:40.541Z,660.00
2024-03-09T09:01:40.567Z,653.00
2024-03-09T09:02:40.534Z,655.00
2024-03-09T09:03:40.488Z,660.00
2024-03-09T09:04:40.550Z,662.00
2024-03-09T09:05:40.535Z,659.00
2024-03-09T09:06:40.542Z,658.00
2024-03-09T09:07:40.626Z,656.00
2024-03-09T09:08:40.490Z,656.00
2024-03-09T09:09:40.510Z,649.00
2024-03-09T09:10:40.560Z,651.00
2024-03-09T09:11:40.635Z,654.00
2024-03-09T09:12:40.531Z,656.00
2024-03-09T09:13:40.544Z,653.00
2024-03-09T09:14:40.550Z,653.00
2024-03-09T09:15:40.535Z,653.00
2024-03-09T09:16:40.573Z,653.00
2024-03-09T09:17:40.570Z,649.00
2024-03-09T09:18:40.541Z,651.00
2024-03-09T09:19:40.570Z,648.00
2024-03-09T09:20:40.513Z,644.00
2024-03-09T09:21:40.523Z,649.00
2024-03-09T09:22:40.700Z,648.00
2024-03-09T09:23:40.560Z,647.00
2024-03-09T09:24:40.551Z,645.00
2024-03-09T09:25:40.652Z,640.00
2024-03-09T09:26:41.478Z,639.00
2024-03-09T09:27:40.562Z,642.00
2024-03-09T09:28:40.563Z,643.00
2024-03-09T09:29:40.546Z,641.00
2024-03-09T09:30:40.556Z,638.00
2024-03-09T09:31:40.553Z,634.00
2024-03-09T09:32:40.626Z,633.00
2024-03-09T09:33:40.625Z,627.00
2024-03-09T09:34:40.754Z,627.00
2024-03-09T09:35:40.762Z,626.00
2024-03-09T09:36:40.784Z,626.00
2024-03-09T09:37:40.940Z,628.00
2024-03-09T09:38:40.900Z,626.00
2024-03-09T09:39:40.946Z,630.00
2024-03-09T09:40:40.934Z,629.00
2024-03-09T09:41:40.989Z,628.00
2024-03-09T09:42:41.037Z,627.00
2024-03-09T09:43:41.184Z,629.00
2024-03-09T09:44:41.134Z,631.00
2024-03-09T09:45:41.199Z,627.00
2024-03-09T09:46:41.245Z,621.00
2024-03-09T09:47:41.323Z,622.00
2024-03-09T09:48:41.305Z,629.00
2024-03-09T09:49:41.385Z,631.00
2024-03-09T09:50:41.365Z,633.00
2024-03-09T09:51:41.437Z,632.00
2024-03-09T09:52:41.516Z,632.00
2024-03-09T09:53:41.609Z,631.00
2024-03-09T09:54:41.557Z,638.00
2024-03-09T09:55:41.961Z,639.00
2024-03-09T09:56:41.671Z,641.00
2024-03-09T09:57:41.727Z,642.00
2024-03-09T09:58:41.799Z,643.00
2024-03-09T09:59:41.793Z,645.00
2024-03-09T10:00:41.866Z,640.00
2024-03-09T10:01:41.931Z,645.00
2024-03-09T10:02:41.961Z,643.00
2024-03-09T10:03:42.004Z,644.00
2024-03-09T10:04:42.064Z,641.00
2024-03-09T10:05:42.091Z,644.00
2024-03-09T10:06:42.115Z,640.00
2024-03-09T10:07:42.201Z,634.00
2024-03-09T10:08:42.215Z,636.00
2024-03-09T10:09:42.273Z,637.00
2024-03-09T10:10:42.322Z,632.00
2024-03-09T10:11:42.348Z,631.00
2024-03-09T10:12:42.354Z,625.00
2024-03-09T10:13:42.423Z,627.00
2024-03-09T10:14:42.417Z,623.00
2024-03-09T10:15:42.536Z,620.00
2024-03-09T10:16:42.527Z,618.00
2024-03-09T10:17:42.570Z,615.00
2024-03-09T10:18:42.610Z,614.00
2024-03-09T10:19:42.624Z,613.00
2024-03-09T10:20:42.690Z,614.00
2024-03-09T10:21:42.672Z,613.00
2024-03-09T10:22:42.793Z,613.00
2024-03-09T10:23:42.772Z,611.00
2024-03-09T10:24:42.796Z,611.00
2024-03-09T10:25:43.012Z,614.00
2024-03-09T10:26:42.928Z,611.00
2024-03-09T10:27:42.911Z,614.00
2024-03-09T10:28:42.992Z,612.00
2024-03-09T10:29:42.953Z,614.00
2024-03-09T10:30:43.006Z,613.00
2024-03-09T10:31:43.085Z,611.00
2024-03-09T10:32:43.694Z,610.00
2024-03-09T10:33:43.180Z,606.00
2024-03-09T10:34:43.194Z,609.00
2024-03-09T10:35:43.207Z,608.00
2024-03-09T10:36:43.278Z,605.00
2024-03-09T10:37:43.327Z,604.00
2024-03-09T10:38:43.350Z,604.00
2024-03-09T10:39:43.373Z,606.00
2024-03-09T10:40:43.646Z,604.00
2024-03-09T10:41:43.478Z,600.00
2024-03-09T10:42:43.431Z,602.00
2024-03-09T10:43:43.498Z,602.00
2024-03-09T10:44:43.471Z,606.00
2024-03-09T10:45:43.536Z,606.00
2024-03-09T10:46:43.559Z,604.00
2024-03-09T10:47:43.592Z,607.00
2024-03-09T10:48:43.626Z,607.00
2024-03-09T10:49:43.683Z,605.00
2024-03-09T10:50:43.697Z,606.00
2024-03-09T10:51:43.705Z,603.00
2024-03-09T10:52:43.773Z,604.00
2024-03-09T10:53:43.767Z,600.00
2024-03-09T10:54:43.804Z,601.00
2024-03-09T10:55:43.871Z,601.00
2024-03-09T10:56:43.896Z,610.00
2024-03-09T10:57:43.894Z,611.00
2024-03-09T10:58:43.990Z,618.00
2024-03-09T10:59:43.988Z,618.00
2024-03-09T11:00:44.003Z,618.00
2024-03-09T11:01:44.198Z,619.00
2024-03-09T11:02:44.157Z,620.00
2024-03-09T11:03:44.092Z,623.00
2024-03-09T11:04:44.165Z,623.00
2024-03-09T11:05:44.188Z,624.00
2024-03-09T11:06:44.238Z,624.00
2024-03-09T11:07:44.355Z,621.00
2024-03-09T11:08:44.280Z,624.00
2024-03-09T11:09:44.342Z,623.00
2024-03-09T11:10:44.395Z,620.00
2024-03-09T11:11:44.408Z,618.00
2024-03-09T11:12:44.397Z,619.00
2024-03-09T11:13:44.451Z,620.00
2024-03-09T11:14:44.437Z,623.00
2024-03-09T11:15:44.478Z,617.00
2024-03-09T11:16:44.565Z,623.00
2024-03-09T11:17:44.613Z,627.00
2024-03-09T11:18:44.582Z,632.00
2024-03-09T11:19:44.686Z,631.00
2024-03-09T11:20:44.662Z,632.00
2024-03-09T11:21:44.698Z,628.00
2024-03-09T11:22:44.716Z,632.00
2024-03-09T11:23:44.772Z,632.00
2024-03-09T11:24:44.766Z,631.00
2024-03-09T11:25:44.831Z,626.00
2024-03-09T11:26:44.824Z,624.00
2024-03-09T11:27:44.865Z,626.00
2024-03-09T11:28:45.372Z,629.00
2024-03-09T11:29:45.151Z,632.00
2024-03-09T11:30:44.996Z,632.00
2024-03-09T11:31:45.338Z,629.00
2024-03-09T11:32:45.040Z,618.00
2024-03-09T11:33:47.397Z,619.00
2024-03-09T11:34:45.128Z,619.00
2024-03-09T11:35:45.606Z,619.00
2024-03-09T11:36:45.076Z,618.00
2024-03-09T11:37:45.083Z,614.00
2024-03-09T11:38:45.088Z,615.00
2024-03-09T11:39:45.311Z,614.00
2024-03-09T11:40:45.053Z,613.00
2024-03-09T11:41:45.161Z,610.00
2024-03-09T11:42:45.061Z,612.00
2024-03-09T11:43:45.088Z,613.00
2024-03-09T11:44:45.050Z,610.00
2024-03-09T11:45:45.136Z,606.00
2024-03-09T11:46:45.147Z,609.00
2024-03-09T11:47:45.123Z,606.00
2024-03-09T11:48:45.387Z,602.00
2024-03-09T11:49:45.119Z,604.00
2024-03-09T11:50:45.111Z,602.00
2024-03-09T11:51:45.084Z,607.00
2024-03-09T11:52:45.098Z,608.00
2024-03-09T11:53:45.092Z,604.00
2024-03-09T11:54:45.232Z,608.00
2024-03-09T11:55:45.143Z,605.00
2024-03-09T11:56:45.118Z,612.00
2024-03-09T11:57:45.085Z,614.00
2024-03-09T11:58:45.128Z,606.00
2024-03-09T11:59:45.083Z,605.00
2024-03-09T12:00:45.085Z,608.00
2024-03-09T12:01:45.113Z,608.00
2024-03-09T12:02:45.093Z,605.00
2024-03-09T12:03:45.105Z,602.00
2024-03-09T12:04:45.121Z,603.00
2024-03-09T12:05:45.124Z,603.00
2024-03-09T12:06:45.121Z,607.00
2024-03-09T12:07:45.145Z,603.00
2024-03-09T12:08:45.146Z,605.00
2024-03-09T12:09:45.301Z,607.00
2024-03-09T12:10:45.323Z,597.00
2024-03-09T12:11:45.275Z,600.00
2024-03-09T12:12:45.235Z,603.00
2024-03-09T12:13:45.351Z,600.00
2024-03-09T12:14:45.339Z,597.00
2024-03-09T12:15:45.331Z,602.00
2024-03-09T12:16:45.364Z,598.00
2024-03-09T12:17:45.363Z,607.00
2024-03-09T12:18:45.357Z,603.00
2024-03-09T12:19:45.523Z,602.00
2024-03-09T12:20:48.740Z,594.00
2024-03-09T12:21:46.405Z,595.00
2024-03-09T12:22:45.386Z,595.00
2024-03-09T12:23:45.416Z,595.00
2024-03-09T12:24:45.455Z,592.00
2024-03-09T12:25:45.441Z,592.00
2024-03-09T12:26:45.425Z,604.00
2024-03-09T12:27:45.409Z,600.00
2024-03-09T12:28:45.439Z,603.00
2024-03-09T12:29:45.427Z,602.00